createdAt,value
2023-01-03T00:00:51.419Z,1.65
2023-01-03T00:05:02.311Z,2.03
2023-01-03T00:09:08.631Z,2.20
2023-01-03T00:13:45.135Z,2.30
2023-01-03T00:17:48.143Z,1.60
2023-01-03T00:21:52.664Z,1.40
2023-01-03T00:26:31.304Z,1.40
2023-01-03T00:30:34.465Z,2.20
2023-01-03T00:34:37.824Z,2.30
2023-01-03T00:38:42.238Z,1.80
2023-01-03T00:43:02.597Z,2.13
2023-01-03T00:47:05.738Z,3.42
2023-01-03T00:51:13.110Z,2.10
2023-01-03T00:55:17.622Z,1.80
2023-01-03T00:59:22.416Z,1.90
2023-01-03T01:03:28.636Z,2.38
2023-01-03T01:07:32.212Z,2.10
2023-01-03T01:11:39.399Z,3.05
2023-01-03T01:16:40.235Z,1.90
2023-01-03T01:20:43.255Z,3.05
2023-01-03T01:24:48.604Z,2.75
2023-01-03T01:29:23.874Z,1.98
2023-01-03T01:33:29.054Z,1.90
2023-01-03T01:37:32.812Z,1.75
2023-01-03T01:41:54.551Z,2.05
2023-01-03T01:45:59.971Z,2.22
2023-01-03T01:50:16.374Z,2.13
2023-01-03T01:54:20.707Z,1.80
2023-01-03T01:58:27.442Z,2.20
2023-01-03T02:02:32.248Z,2.42
2023-01-03T02:07:06.694Z,2.42
2023-01-03T02:11:25.063Z,2.45
2023-01-03T02:15:51.590Z,2.15
2023-01-03T02:20:11.798Z,2.22
2023-01-03T02:24:43.671Z,4.22
2023-01-03T02:29:30.762Z,2.50
2023-01-03T02:33:54.981Z,3.07
2023-01-03T02:38:01.365Z,3.30
2023-01-03T02:42:29.084Z,2.50
2023-01-03T02:46:39.170Z,2.38
2023-01-03T02:50:47.750Z,2.22
2023-01-03T02:55:23.385Z,2.58
2023-01-03T02:59:32.622Z,2.33
2023-01-03T03:03:38.960Z,2.28
2023-01-03T03:07:43.855Z,3.38
2023-01-03T03:12:08.422Z,3.60
2023-01-03T03:16:42.391Z,2.50
2023-01-03T03:21:05.918Z,2.43
2023-01-03T03:25:14.557Z,2.65
2023-01-03T03:29:20.049Z,2.75
2023-01-03T03:33:27.204Z,2.13
2023-01-03T03:37:35.679Z,2.53
2023-01-03T03:42:02.522Z,2.17
2023-01-03T03:46:13.924Z,2.93
2023-01-03T03:50:23.855Z,3.30
2023-01-03T03:54:29.593Z,2.30
2023-01-03T03:58:50.621Z,2.53
2023-01-03T04:02:56.600Z,2.30
2023-01-03T04:07:03.554Z,2.40
2023-01-03T04:11:07.239Z,2.83
2023-01-03T04:15:12.352Z,2.77
2023-01-03T04:19:15.447Z,3.67
2023-01-03T04:23:20.231Z,2.78
2023-01-03T04:27:25.490Z,2.50
2023-01-03T04:31:32.581Z,2.30
2023-01-03T04:35:36.066Z,2.70
2023-01-03T04:39:39.412Z,5.67
2023-01-03T04:44:07.711Z,2.60
2023-01-03T04:48:12.399Z,2.73
2023-01-03T04:52:16.141Z,4.57
2023-01-03T04:56:31.126Z,3.27
2023-01-03T05:00:34.335Z,2.93
2023-01-03T05:04:38.938Z,3.27
2023-01-03T05:08:43.533Z,5.57
2023-01-03T05:13:00.104Z,4.00
2023-01-03T05:17:04.190Z,5.93
2023-01-03T05:21:33.410Z,5.50
2023-01-03T05:25:51.706Z,5.40
2023-01-03T05:29:57.082Z,3.93
2023-01-03T05:34:00.620Z,3.97
2023-01-03T05:38:07.097Z,6.53
2023-01-03T05:42:11.834Z,3.80
2023-01-03T05:46:14.990Z,5.53
2023-01-03T05:50:18.295Z,5.00
2023-01-03T05:54:24.992Z,4.73
2023-01-03T05:58:32.637Z,4.07
2023-01-03T06:02:35.762Z,5.03
2023-01-03T06:07:15.111Z,7.90
2023-01-03T06:11:19.935Z,4.83
2023-01-03T06:15:23.109Z,4.60
2023-01-03T06:19:31.601Z,6.43
2023-01-03T06:24:02.181Z,6.57
2023-01-03T06:28:06.699Z,5.33
2023-01-03T06:32:10.374Z,4.20
2023-01-03T06:36:47.679Z,6.67
2023-01-03T06:40:51.520Z,4.67
2023-01-03T06:45:15.822Z,3.93
2023-01-03T06:49:40.262Z,4.13
2023-01-03T06:53:44.680Z,5.80
2023-01-03T06:57:47.883Z,5.07
2023-01-03T07:01:56.434Z,6.87
2023-01-03T07:06:02.503Z,8.50
2023-01-03T07:10:06.129Z,7.97
2023-01-03T07:14:12.268Z,6.13
2023-01-03T07:18:21.037Z,5.33
2023-01-03T07:22:24.177Z,5.10
2023-01-03T07:26:27.224Z,6.77
2023-01-03T07:31:04.836Z,6.43
2023-01-03T07:35:10.557Z,7.60
2023-01-03T07:39:15.078Z,8.67
2023-01-03T07:43:45.593Z,10.67
2023-01-03T07:47:48.679Z,7.03
2023-01-03T07:51:53.096Z,9.50
2023-01-03T07:56:10.778Z,9.80
2023-01-03T08:00:30.971Z,7.50
2023-01-03T08:04:34.169Z,12.17
2023-01-03T08:08:42.894Z,9.90
2023-01-03T08:13:03.915Z,12.57
2023-01-03T08:17:21.789Z,12.07
2023-01-03T08:21:26.026Z,10.83
2023-01-03T08:25:30.532Z,11.47
2023-01-03T08:29:33.862Z,10.47
2023-01-03T08:34:16.831Z,10.43
2023-01-03T08:38:28.322Z,13.87
2023-01-03T08:42:34.523Z,9.87
2023-01-03T08:46:42.311Z,12.67
2023-01-03T08:50:48.452Z,10.10
2023-01-03T08:54:54.673Z,13.43
2023-01-03T08:59:32.222Z,18.67
2023-01-03T09:03:35.466Z,8.53
2023-01-03T09:08:14.240Z,14.90
2023-01-03T09:12:19.485Z,10.73
2023-01-03T09:16:57.385Z,13.17
2023-01-03T09:21:00.534Z,8.80
2023-01-03T09:25:41.707Z,14.17
2023-01-03T09:29:44.821Z,9.57
2023-01-03T09:33:51.654Z,15.00
2023-01-03T09:38:21.906Z,13.30
2023-01-03T09:42:46.205Z,14.77
2023-01-03T09:47:26.662Z,12.23
2023-01-03T09:51:54.296Z,11.33
2023-01-03T09:56:18.650Z,16.27
2023-01-03T10:00:44.648Z,10.50
2023-01-03T10:05:12.515Z,10.93
2023-01-03T10:09:28.916Z,34.60
2023-01-03T10:13:42.906Z,9.13
2023-01-03T10:17:59.968Z,12.00
2023-01-03T10:22:25.596Z,9.38
2023-01-03T10:26:34.649Z,10.30
2023-01-03T10:30:58.527Z,7.83
2023-01-03T10:35:19.233Z,8.97
2023-01-03T10:39:31.556Z,9.23
2023-01-03T10:43:41.839Z,8.85
2023-01-03T10:48:01.101Z,6.35
2023-01-03T10:52:27.216Z,8.07
2023-01-03T10:56:36.327Z,5.60
2023-01-03T11:00:40.977Z,4.90
2023-01-03T11:05:07.892Z,5.00
2023-01-03T11:09:12.401Z,5.35
2023-01-03T11:13:25.430Z,5.10
2023-01-03T11:17:59.774Z,6.07
2023-01-03T11:22:08.377Z,7.85
2023-01-03T11:26:22.326Z,6.15
2023-01-03T11:30:33.111Z,4.78
2023-01-03T11:35:21.444Z,4.43
2023-01-03T11:39:57.259Z,6.78
2023-01-03T11:44:36.879Z,5.65
2023-01-03T11:49:05.174Z,5.13
2023-01-03T11:53:22.485Z,4.88
2023-01-03T11:57:35.257Z,5.72
2023-01-03T12:02:26.825Z,5.65
2023-01-03T12:06:36.375Z,4.60
2023-01-03T12:10:49.279Z,3.90
2023-01-03T12:14:56.828Z,4.43
2023-01-03T12:19:09.956Z,4.38
2023-01-03T12:23:24.509Z,4.45
2023-01-03T12:27:36.426Z,5.50
2023-01-03T12:31:49.828Z,4.78
2023-01-03T12:35:58.713Z,4.35
2023-01-03T12:40:04.075Z,4.60
2023-01-03T12:44:43.549Z,4.15
2023-01-03T12:49:06.980Z,5.88
2023-01-03T12:53:19.176Z,4.28
2023-01-03T12:58:00.696Z,4.10
2023-01-03T13:02:23.106Z,4.32
2023-01-03T13:06:39.382Z,4.82
2023-01-03T13:10:47.590Z,4.55
2023-01-03T13:14:58.597Z,3.83
2023-01-03T13:19:34.853Z,3.70
2023-01-03T13:24:05.571Z,7.25
2023-01-03T13:28:31.861Z,4.22
2023-01-03T13:32:58.511Z,4.18
2023-01-03T13:37:15.260Z,3.40
2023-01-03T13:41:35.383Z,9.60
2023-01-03T13:46:01.709Z,6.80
2023-01-03T13:50:05.154Z,7.75
2023-01-03T13:54:30.066Z,5.90
2023-01-03T13:58:41.470Z,7.63
2023-01-03T14:03:27.281Z,5.55
2023-01-03T14:07:51.910Z,3.72
2023-01-03T14:12:11.270Z,3.55
2023-01-03T14:16:22.505Z,9.23
2023-01-03T14:20:36.201Z,5.82
2023-01-03T14:25:07.790Z,3.53
2023-01-03T14:29:18.807Z,3.33
2023-01-03T14:33:24.559Z,5.45
2023-01-03T14:37:31.280Z,4.43
2023-01-03T14:41:37.596Z,3.83
2023-01-03T14:46:13.287Z,7.22
2023-01-03T14:50:21.414Z,6.38
2023-01-03T14:54:25.879Z,8.75
2023-01-03T14:58:34.853Z,12.55
2023-01-03T15:02:40.585Z,55.78
2023-01-03T15:07:13.971Z,10.20
2023-01-03T15:11:25.136Z,62.08
2023-01-03T15:15:31.557Z,17.33
2023-01-03T15:19:36.045Z,10.57
2023-01-03T15:23:43.431Z,8.32
2023-01-03T15:27:50.403Z,8.83
2023-01-03T15:32:00.837Z,9.27
2023-01-03T15:36:06.889Z,6.07
2023-01-03T15:40:41.184Z,7.17
2023-01-03T15:44:49.521Z,6.93
2023-01-03T15:49:24.368Z,7.17
2023-01-03T15:53:35.442Z,8.00
2023-01-03T15:58:05.438Z,8.37
2023-01-03T16:02:25.102Z,12.30
2023-01-03T16:06:35.897Z,8.87
2023-01-03T16:11:05.304Z,11.40
2023-01-03T16:15:43.656Z,9.07
2023-01-03T16:19:51.690Z,11.33
2023-01-03T16:23:57.201Z,11.37
2023-01-03T16:28:00.462Z,11.83
2023-01-03T16:32:40.317Z,11.03
2023-01-03T16:36:47.280Z,11.40
2023-01-03T16:40:53.321Z,12.20
2023-01-03T16:44:57.532Z,12.27
2023-01-03T16:49:00.891Z,9.10
2023-01-03T16:53:10.059Z,11.57
2023-01-03T16:57:53.657Z,13.00
2023-01-03T17:01:59.580Z,11.20
2023-01-03T17:06:04.937Z,14.20
2023-01-03T17:10:39.057Z,21.20
2023-01-03T17:14:47.450Z,12.50
2023-01-03T17:18:50.945Z,11.90
2023-01-03T17:23:27.545Z,13.43
2023-01-03T17:27:33.785Z,17.33
2023-01-03T17:31:38.266Z,12.70
2023-01-03T17:35:48.512Z,16.10
2023-01-03T17:40:20.661Z,16.23
2023-01-03T17:44:23.757Z,15.13
2023-01-03T17:48:51.241Z,19.93
2023-01-03T17:52:58.742Z,21.17
2023-01-03T17:57:31.637Z,21.60
2023-01-03T18:01:45.818Z,18.87
2023-01-03T18:05:50.438Z,19.57
2023-01-03T18:09:56.639Z,23.43
2023-01-03T18:13:59.689Z,26.43
2023-01-03T18:18:05.391Z,19.80
2023-01-03T18:22:41.164Z,25.77
2023-01-03T18:26:48.839Z,22.70
2023-01-03T18:31:20.333Z,23.03
2023-01-03T18:35:55.974Z,20.53
2023-01-03T18:40:32.513Z,23.73
2023-01-03T18:45:11.966Z,23.47
2023-01-03T18:49:45.155Z,25.03
2023-01-03T18:54:25.347Z,24.13
2023-01-03T18:59:11.618Z,28.87
2023-01-03T19:03:38.209Z,23.37
2023-01-03T19:07:44.799Z,27.47
2023-01-03T19:12:22.071Z,25.00
2023-01-03T19:16:57.649Z,26.00
2023-01-03T19:21:34.750Z,35.10
2023-01-03T19:25:42.592Z,36.60
2023-01-03T19:30:20.529Z,30.03
2023-01-03T19:34:57.955Z,30.13
2023-01-03T19:39:37.599Z,35.73
2023-01-03T19:44:19.244Z,23.37
2023-01-03T19:48:47.620Z,28.80
2023-01-03T19:52:53.475Z,32.20
2023-01-03T19:57:02.068Z,38.93
2023-01-03T20:01:07.003Z,34.17
2023-01-03T20:05:23.899Z,33.30
2023-01-03T20:09:28.962Z,29.50
2023-01-03T20:14:04.786Z,29.80
2023-01-03T20:18:24.491Z,35.60
2023-01-03T20:27:07.595Z,31.30
2023-01-03T20:31:44.318Z,28.53
2023-01-03T20:36:23.648Z,30.67
2023-01-03T20:40:30.165Z,32.43
2023-01-03T20:44:35.842Z,65.33
2023-01-03T20:48:38.892Z,448.07
2023-01-03T20:52:41.932Z,530.93
2023-01-03T20:56:48.152Z,473.23
2023-01-03T21:01:21.664Z,576.53
2023-01-03T21:06:19.683Z,510.80
2023-01-03T21:10:24.879Z,354.90
2023-01-03T21:14:29.330Z,332.40
2023-01-03T21:19:04.864Z,256.87
2023-01-03T21:23:08.454Z,314.10
2023-01-03T21:27:13.572Z,266.03
2023-01-03T21:31:50.394Z,257.70
2023-01-03T21:36:31.146Z,115.53
2023-01-03T21:40:34.890Z,178.77
2023-01-03T21:44:39.628Z,248.97
2023-01-03T21:48:44.781Z,328.83
2023-01-03T21:53:22.003Z,289.40
2023-01-03T21:57:25.077Z,234.20
2023-01-03T22:01:51.096Z,120.10
2023-01-03T22:06:51.172Z,58.27
2023-01-03T22:10:57.542Z,83.73
2023-01-03T22:15:00.596Z,276.33
2023-01-03T22:19:03.650Z,100.53
2023-01-03T22:23:44.985Z,122.17
2023-01-03T22:27:57.467Z,251.70
2023-01-03T22:32:00.582Z,239.83
2023-01-03T22:36:37.504Z,147.00
2023-01-03T22:40:40.626Z,254.97
2023-01-03T22:44:45.323Z,263.13
2023-01-03T22:49:18.975Z,111.23
2023-01-03T22:53:24.156Z,74.37
2023-01-03T22:57:27.470Z,74.60
2023-01-03T23:01:34.072Z,51.03
2023-01-03T23:05:41.312Z,94.30
2023-01-03T23:10:12.401Z,211.70
2023-01-03T23:14:17.953Z,347.33
2023-01-03T23:18:23.754Z,333.13
2023-01-03T23:22:27.008Z,460.77
2023-01-03T23:27:07.497Z,435.20
2023-01-03T23:31:13.708Z,489.47
2023-01-03T23:35:18.558Z,461.43
2023-01-03T23:39:21.729Z,461.77
2023-01-03T23:43:25.527Z,496.40
2023-01-03T23:47:28.614Z,494.70
2023-01-03T23:51:44.552Z,438.07
2023-01-03T23:55:52.658Z,489.33
